Hauptseite
METAR-TAF:

METAR-TAF

Flughäfen :

RAF Fairford

Fairford, England

Breite: 51-41N, Länge: 001-47W, Höhe: 87 m

Beobachtung

Neuester Wetterbericht von vor 2 Stunden und 34 Minuten, um 23:56 UTC
Wind 6 kt aus West
Temperatur 3°C
Luftfeuchtigkeit 87%
Luftdruck 1029 hPa
Himmel klar

METAR: EGVA 242356Z AUTO 26006KT M M CLR 03/01 A3039 RMK AO2 SLP297 T00310010 10098 20028 401230028 57006 RVRNO $

Zeit: 02:30 (02:30 UTC)


TAF: fehlend

Wetterbeobachtungen und Prognosen von mehr als 4000 Flughäfen (METAR und TAF Bericht).

Die verfügbaren Stationen werden durch gelbe und rote Markierungen auf der Karte dargestellt.

Führen Sie die Maus auf sie, um den Namen der Station zu sehen.

Darauf klicken, um die Beobachtung von Wetterbeobachtungen und Prognosen zu sehen.

Um die Karte zu ändern : klicken Sie auf den grünen Tasten mit einem schwarzen Kreuz Zum Vergrößern, auf den grünen Button mit einem Gedankenstrich zu verkleinern, oder auf die grünen Pfeile für benachbarte Karten.


METAR-TAF: